Time,TemperatureF,DewpointF,PressureIn,WindDirection,WindDirectionDegrees,WindSpeedMPH,WindSpeedGustMPH,Humidity,HourlyPrecipIn,Conditions,Clouds,dailyrainin,SoftwareType,DateUTC
2013-08-19 00:11:00,73.0,44.0,29.85,East,82,9.0,-999.0,36,-99.99,,,-99.99,,2013-08-19 06:11:00,
2013-08-19 00:21:00,73.0,45.0,29.85,ENE,59,7.0,-999.0,37,-99.99,,,-99.99,,2013-08-19 06:21:00,
2013-08-19 00:41:00,71.0,45.0,29.86,NE,51,3.0,-999.0,39,-99.99,,,-99.99,,2013-08-19 06:41:00,
2013-08-19 00:51:00,70.0,45.0,29.86,NNE,30,5.0,-999.0,41,-99.99,,,-99.99,,2013-08-19 06:51:00,
2013-08-19 01:11:00,70.0,45.0,29.86,NNE,25,6.0,-999.0,41,-99.99,,,-99.99,,2013-08-19 07:11:00,
2013-08-19 01:21:00,69.0,46.0,29.86,NE,46,7.0,-999.0,43,-99.99,,,-99.99,,2013-08-19 07:21:00,
2013-08-19 01:52:00,66.0,46.0,29.87,NNW,340,1.0,-999.0,48,-99.99,,,-99.99,,2013-08-19 07:52:00,
2013-08-19 02:52:00,65.0,49.0,29.87,NNW,337,1.0,-999.0,56,-99.99,,,-99.99,,2013-08-19 08:52:00,
2013-08-19 03:11:00,64.0,48.0,29.87,NNW,341,2.0,-999.0,57,-99.99,,,-99.99,,2013-08-19 09:11:00,
2013-08-19 03:21:00,63.0,47.0,29.87,North,351,4.0,-999.0,56,-99.99,,,-99.99,,2013-08-19 09:21:00,
2013-08-19 03:43:00,60.0,47.0,29.88,NNE,29,4.0,-999.0,63,-99.99,,,-99.99,,2013-08-19 09:43:00,
2013-08-19 03:53:00,59.0,48.0,29.88,NNE,24,0.0,-999.0,66,-99.99,,,-99.99,,2013-08-19 09:53:00,
2013-08-19 04:22:00,60.0,46.0,29.88,NNW,342,2.0,-999.0,60,-99.99,,,-99.99,,2013-08-19 10:22:00,
2013-08-19 04:42:00,60.0,46.0,29.88,North,355,3.0,-999.0,60,-99.99,,,-99.99,,2013-08-19 10:42:00,
2013-08-19 04:52:00,60.0,46.0,29.88,NNW,340,3.0,-999.0,60,-99.99,,,-99.99,,2013-08-19 10:52:00,
2013-08-19 05:11:00,59.0,46.0,29.88,North,350,2.0,-999.0,61,-99.99,,,-99.99,,2013-08-19 11:11:00,
2013-08-19 05:21:00,59.0,45.0,29.89,NNW,339,1.0,-999.0,59,-99.99,,,-99.99,,2013-08-19 11:21:00,
2013-08-19 05:33:00,59.0,45.0,29.89,NNW,339,1.0,-999.0,59,-99.99,,,-99.99,,2013-08-19 11:33:00,
2013-08-19 05:52:00,59.0,43.0,29.89,NNW,339,0.0,-999.0,55,-99.99,,,-99.99,,2013-08-19 11:52:00,
2013-08-19 06:11:00,59.0,42.0,29.90,NNW,344,0.0,-999.0,54,-99.99,,,-99.99,,2013-08-19 12:11:00,
2013-08-19 06:21:00,58.0,41.0,29.90,NNW,348,0.0,-999.0,54,-99.99,,,-99.99,,2013-08-19 12:21:00,
2013-08-19 06:42:00,58.0,40.0,29.90,North,349,0.0,-999.0,51,-99.99,,,-99.99,,2013-08-19 12:42:00,
2013-08-19 06:52:00,58.0,38.0,29.91,North,349,0.0,-999.0,47,-99.99,,,-99.99,,2013-08-19 12:52:00,
2013-08-19 07:22:00,60.0,38.0,29.93,North,349,0.0,-999.0,44,-99.99,,,-99.99,,2013-08-19 13:22:00,
2013-08-19 07:42:00,59.0,41.0,29.93,SSE,165,1.0,-999.0,51,-99.99,,,-99.99,,2013-08-19 13:42:00,
2013-08-19 07:52:00,60.0,41.0,29.94,South,170,1.0,-999.0,50,-99.99,,,-99.99,,2013-08-19 13:52:00,
2013-08-19 08:21:00,62.0,41.0,29.94,SSE,167,0.0,-999.0,46,-99.99,,,-99.99,,2013-08-19 14:21:00,
2013-08-19 08:52:00,64.0,41.0,29.95,West,262,0.0,-999.0,43,-99.99,,,-99.99,,2013-08-19 14:52:00,
2013-08-19 09:11:00,66.0,40.0,29.95,West,262,0.0,-999.0,39,-99.99,,,-99.99,,2013-08-19 15:11:00,
2013-08-19 09:22:00,67.0,41.0,29.94,West,262,0.0,-999.0,39,-99.99,,,-99.99,,2013-08-19 15:22:00,
2013-08-19 09:44:00,69.0,42.0,29.94,West,262,0.0,-999.0,37,-99.99,,,-99.99,,2013-08-19 15:44:00,
2013-08-19 09:54:00,70.0,42.0,29.94,West,262,0.0,-999.0,36,-99.99,,,-99.99,,2013-08-19 15:54:00,
2013-08-19 10:13:00,72.0,43.0,29.94,WSW,250,0.0,-999.0,35,-99.99,,,-99.99,,2013-08-19 16:13:00,
2013-08-19 10:23:00,73.0,44.0,29.94,WSW,250,0.0,-999.0,36,-99.99,,,-99.99,,2013-08-19 16:23:00,
2013-08-19 10:47:00,75.0,46.0,29.94,WSW,254,0.0,-999.0,36,-99.99,,,-99.99,,2013-08-19 16:47:00,
2013-08-19 11:12:00,77.0,43.0,29.93,NNW,332,0.0,-999.0,30,-99.99,,,-99.99,,2013-08-19 17:12:00,
2013-08-19 11:30:00,79.0,-99.9,29.93,North,5,1.0,-999.0,26,-99.99,,,-99.99,,2013-08-19 17:30:00,
2013-08-19 11:57:00,81.0,43.0,29.92,NW,309,3.0,-999.0,26,-99.99,,,-99.99,,2013-08-19 17:57:00,
2013-08-19 12:19:00,82.0,42.0,29.92,NNW,332,2.0,-999.0,24,-99.99,,,-99.99,,2013-08-19 18:19:00,
2013-08-19 12:28:00,84.0,42.0,29.91,NW,324,1.0,-999.0,23,-99.99,,,-99.99,,2013-08-19 18:28:00,
2013-08-19 12:50:00,-999.0,-99.9,29.91,NNW,327,1.0,-999.0,21,-99.99,,,-99.99,,2013-08-19 18:50:00,
2013-08-19 13:00:00,-999.0,-99.9,29.91,NNW,340,2.0,-999.0,23,-99.99,,,-99.99,,2013-08-19 19:00:00,
2013-08-19 13:16:00,86.0,40.0,29.90,NNW,327,1.0,-999.0,20,-99.99,,,-99.99,,2013-08-19 19:16:00,
2013-08-19 13:30:00,-999.0,-99.9,29.89,NNE,28,0.0,-999.0,19,-99.99,,,-99.99,,2013-08-19 19:30:00,
2013-08-19 13:50:00,89.0,43.0,29.88,WNW,289,2.0,-999.0,20,-99.99,,,-99.99,,2013-08-19 19:50:00,
2013-08-19 13:59:00,90.0,39.0,29.88,East,99,1.0,-999.0,17,-99.99,,,-99.99,,2013-08-19 19:59:00,
2013-08-19 14:30:00,90.0,41.0,29.86,North,11,1.0,-999.0,18,-99.99,,,-99.99,,2013-08-19 20:30:00,
2013-08-19 15:00:00,-999.0,-99.9,29.86,SW,234,6.0,-999.0,-999,-99.99,,,-99.99,,2013-08-19 21:00:00,
2013-08-19 15:16:00,91.0,35.0,29.85,WNW,288,1.0,-999.0,14,-99.99,,,-99.99,,2013-08-19 21:16:00,
2013-08-19 15:25:00,92.0,30.0,29.84,South,191,5.0,-999.0,11,-99.99,,,-99.99,,2013-08-19 21:25:00,
2013-08-19 15:54:00,92.0,30.0,29.83,WNW,286,3.0,-999.0,11,-99.99,,,-99.99,,2013-08-19 21:54:00,
2013-08-19 16:25:00,91.0,31.0,29.81,North,5,2.0,-999.0,12,-99.99,,,-99.99,,2013-08-19 22:25:00,
2013-08-19 16:44:00,92.0,30.0,29.81,SE,145,2.0,-999.0,11,-99.99,,,-99.99,,2013-08-19 22:44:00,
2013-08-19 16:54:00,92.0,32.0,29.80,WSW,257,1.0,-999.0,12,-99.99,,,-99.99,,2013-08-19 22:54:00,
2013-08-19 17:15:00,92.0,32.0,29.80,SW,230,1.0,-999.0,12,-99.99,,,-99.99,,2013-08-19 23:15:00,
2013-08-19 17:25:00,92.0,28.0,29.80,WSW,239,2.0,-999.0,10,-99.99,,,-99.99,,2013-08-19 23:25:00,
2013-08-19 18:11:00,94.0,24.0,29.79,NW,307,7.0,-999.0,8,-99.99,,,-99.99,,2013-08-20 00:11:00,
2013-08-19 18:41:00,93.0,23.0,29.78,WNW,292,11.0,-999.0,8,-99.99,,,-99.99,,2013-08-20 00:41:00,
2013-08-19 18:52:00,92.0,25.0,29.78,WNW,300,6.0,-999.0,9,-99.99,,,-99.99,,2013-08-20 00:52:00,
2013-08-19 19:03:00,92.0,25.0,29.78,WNW,300,6.0,-999.0,9,-99.99,,,-99.99,,2013-08-20 01:03:00,
2013-08-19 19:11:00,92.0,25.0,29.78,WNW,300,6.0,-999.0,9,-99.99,,,-99.99,,2013-08-20 01:11:00,
2013-08-19 19:52:00,89.0,25.0,29.78,WNW,298,5.0,-999.0,10,-99.99,,,-99.99,,2013-08-20 01:52:00,
2013-08-19 20:11:00,88.0,27.0,29.79,WNW,296,2.0,-999.0,11,-99.99,,,-99.99,,2013-08-20 02:11:00,
2013-08-19 20:21:00,86.0,25.0,29.79,WNW,290,3.0,-999.0,11,-99.99,,,-99.99,,2013-08-20 02:21:00,
2013-08-19 20:51:00,83.0,25.0,29.80,WNW,291,3.0,-999.0,12,-99.99,,,-99.99,,2013-08-20 02:51:00,
2013-08-19 21:22:00,81.0,24.0,29.80,WNW,298,3.0,-999.0,12,-99.99,,,-99.99,,2013-08-20 03:22:00,
2013-08-19 21:43:00,81.0,24.0,29.81,NW,323,5.0,-999.0,12,-99.99,,,-99.99,,2013-08-20 03:43:00,
2013-08-19 21:53:00,80.0,23.0,29.81,NW,312,5.0,-999.0,12,-99.99,,,-99.99,,2013-08-20 03:53:00,
2013-08-19 22:13:00,76.0,29.0,29.82,North,355,6.0,-999.0,18,-99.99,,,-99.99,,2013-08-20 04:13:00,
2013-08-19 22:23:00,76.0,29.0,29.82,NNW,337,5.0,-999.0,18,-99.99,,,-99.99,,2013-08-20 04:23:00,
2013-08-19 22:53:00,73.0,31.0,29.83,NNW,346,6.0,-999.0,21,-99.99,,,-99.99,,2013-08-20 04:53:00,
2013-08-19 23:12:00,75.0,30.0,29.83,NNW,340,3.0,-999.0,19,-99.99,,,-99.99,,2013-08-20 05:12:00,
2013-08-19 23:21:00,75.0,29.0,29.83,WNW,292,3.0,-999.0,18,-99.99,,,-99.99,,2013-08-20 05:21:00,
2013-08-19 23:42:00,74.0,26.0,29.84,WNW,292,0.0,-999.0,17,-99.99,,,-99.99,,2013-08-20 05:42:00,
2013-08-19 23:52:00,74.0,25.0,29.83,NW,306,0.0,-999.0,16,-99.99,,,-99.99,,2013-08-20 05:52:00,